createdAt,value
2023-04-27T00:00:20.816Z,99684.55
2023-04-27T00:01:23.167Z,99685.95
2023-04-27T00:02:25.554Z,99679.78
2023-04-27T00:03:28.135Z,99681.14
2023-04-27T00:04:30.947Z,99683.59
2023-04-27T00:05:35.705Z,99685.12
2023-04-27T00:06:38.068Z,99685.45
2023-04-27T00:07:40.582Z,99688.98
2023-04-27T00:08:42.933Z,99676.70
2023-04-27T00:09:45.359Z,99689.30
2023-04-27T00:10:47.796Z,99693.61
2023-04-27T00:11:50.009Z,99691.30
2023-04-27T00:12:52.191Z,99687.63
2023-04-27T00:13:54.405Z,99700.54
2023-04-27T00:14:57.451Z,99711.11
2023-04-27T00:16:00.802Z,99698.23
2023-04-27T00:17:03.287Z,99715.27
2023-04-27T00:18:06.032Z,99709.11
2023-04-27T00:19:08.523Z,99715.09
2023-04-27T00:20:12.743Z,99716.31
2023-04-27T00:21:15.113Z,99711.69
2023-04-27T00:22:18.096Z,99716.45
2023-04-27T00:23:21.445Z,99722.75
2023-04-27T00:24:23.458Z,99720.75
2023-04-27T00:25:25.993Z,99725.83
2023-04-27T00:26:28.503Z,99731.36
2023-04-27T00:27:31.147Z,99730.91
2023-04-27T00:28:33.403Z,99728.14
2023-04-27T00:29:35.450Z,99731.67
2023-04-27T00:30:38.071Z,99732.58
2023-04-27T00:31:42.148Z,99740.10
2023-04-27T00:32:44.870Z,99738.11
2023-04-27T00:33:47.488Z,99740.42
2023-04-27T00:34:51.528Z,99738.75
2023-04-27T00:35:53.850Z,99739.52
2023-04-27T00:36:58.781Z,99738.61
2023-04-27T00:38:01.057Z,99745.69
2023-04-27T00:39:04.578Z,99746.45
2023-04-27T00:40:10.828Z,99751.21
2023-04-27T00:41:13.129Z,99744.91
2023-04-27T00:42:15.137Z,99749.35
2023-04-27T00:43:17.222Z,99749.80
2023-04-27T00:45:36.968Z,99753.66
2023-04-27T00:46:39.403Z,99763.28
2023-04-27T00:47:42.063Z,99761.42
2023-04-27T00:48:44.620Z,99765.09
2023-04-27T00:49:46.871Z,99761.68
2023-04-27T00:50:49.379Z,99764.58
2023-04-27T00:51:51.419Z,99763.48
2023-04-27T00:52:53.646Z,99763.16
2023-04-27T00:53:59.906Z,99762.09
2023-04-27T00:55:04.680Z,99763.00
2023-04-27T00:56:07.731Z,99765.11
2023-04-27T00:57:09.882Z,99764.79
2023-04-27T00:58:11.956Z,99761.38
2023-04-27T00:59:14.366Z,99763.05
2023-04-27T01:00:17.899Z,99762.44
2023-04-27T01:01:20.030Z,99772.06
2023-04-27T01:02:22.355Z,99765.89
2023-04-27T01:03:25.001Z,99761.91
2023-04-27T01:04:28.335Z,99762.69
2023-04-27T01:05:32.577Z,99763.13
2023-04-27T01:06:35.358Z,99756.84
2023-04-27T01:07:38.615Z,99755.62
2023-04-27T01:08:40.861Z,99755.17
2023-04-27T01:09:42.889Z,99755.94
2023-04-27T01:10:45.349Z,99753.62
2023-04-27T01:11:48.141Z,99758.15
2023-04-27T01:12:50.364Z,99759.37
2023-04-27T01:16:29.111Z,99756.61
2023-04-27T01:17:32.255Z,99752.53
2023-04-27T01:18:34.921Z,99751.64
2023-04-27T01:19:37.136Z,99759.92
2023-04-27T01:20:39.808Z,99756.06
2023-04-27T01:21:43.911Z,99758.15
2023-04-27T01:22:46.038Z,99759.05
2023-04-27T01:23:48.334Z,99746.61
2023-04-27T01:24:50.461Z,99753.34
2023-04-27T01:25:52.363Z,99750.39
2023-04-27T01:26:57.375Z,99748.96
2023-04-27T01:27:59.582Z,99753.86
2023-04-27T01:29:01.630Z,99755.53
2023-04-27T01:30:06.845Z,99747.81
2023-04-27T01:31:10.028Z,99750.57
2023-04-27T01:32:12.404Z,99754.88
2023-04-27T01:33:14.632Z,99754.75
2023-04-27T01:34:16.931Z,99755.08
2023-04-27T01:35:20.803Z,99755.38
2023-04-27T01:36:23.390Z,99761.38
2023-04-27T01:37:26.393Z,99758.61
2023-04-27T01:38:28.659Z,99762.14
2023-04-27T01:39:31.619Z,99759.68
2023-04-27T01:40:34.206Z,99757.69
2023-04-27T01:41:36.987Z,99760.45
2023-04-27T01:42:39.175Z,99768.73
2023-04-27T01:43:43.214Z,99763.66
2023-04-27T01:44:46.089Z,99767.19
2023-04-27T01:45:48.358Z,99767.19
2023-04-27T01:46:50.930Z,99763.66
2023-04-27T01:47:53.188Z,99757.36
2023-04-27T01:48:55.832Z,99762.27
2023-04-27T01:49:58.318Z,99766.36
2023-04-27T01:51:00.799Z,99759.74
2023-04-27T01:52:04.308Z,99758.64
2023-04-27T01:53:08.286Z,99764.94
2023-04-27T01:54:10.266Z,99757.87
2023-04-27T01:55:12.349Z,99760.62
2023-04-27T01:56:16.363Z,99769.69
2023-04-27T01:57:18.448Z,99768.47
2023-04-27T01:58:20.787Z,99768.80
2023-04-27T01:59:23.777Z,99767.25
2023-04-27T02:00:28.188Z,99759.74
2023-04-27T02:01:30.394Z,99777.84
2023-04-27T02:02:33.191Z,99764.05
2023-04-27T02:03:36.650Z,99764.05
2023-04-27T02:04:40.843Z,99768.35
2023-04-27T02:05:43.349Z,99779.39
2023-04-27T02:06:46.432Z,99777.08
2023-04-27T02:07:49.582Z,99778.62
2023-04-27T02:08:51.785Z,99776.30
2023-04-27T02:09:54.121Z,99781.83
2023-04-27T02:10:56.886Z,99781.05
2023-04-27T02:11:59.133Z,99783.81
2023-04-27T02:13:01.418Z,99787.34
2023-04-27T02:14:03.699Z,99782.59
2023-04-27T02:15:10.105Z,99781.38
2023-04-27T02:16:14.787Z,99783.25
2023-04-27T02:17:16.853Z,99772.98
2023-04-27T02:18:18.986Z,99773.75
2023-04-27T02:19:23.039Z,99767.34
2023-04-27T02:20:26.581Z,99770.88
2023-04-27T02:21:28.779Z,99773.63
2023-04-27T02:22:35.217Z,99777.73
2023-04-27T02:23:37.238Z,99777.08
2023-04-27T02:24:39.515Z,99781.05
2023-04-27T02:25:41.732Z,99779.06
2023-04-27T02:26:45.100Z,99785.03
2023-04-27T02:27:47.290Z,99783.16
2023-04-27T02:28:52.064Z,99785.59
2023-04-27T02:29:56.671Z,99796.19
2023-04-27T02:30:59.741Z,99791.44
2023-04-27T02:32:01.958Z,99788.23
2023-04-27T02:33:05.266Z,99788.67
2023-04-27T02:34:07.753Z,99794.64
2023-04-27T02:35:09.790Z,99795.56
2023-04-27T02:36:12.616Z,99786.51
2023-04-27T02:37:14.819Z,99795.86
2023-04-27T02:38:16.826Z,99790.34
2023-04-27T02:39:18.940Z,99790.34
2023-04-27T02:44:56.435Z,99789.13
2023-04-27T02:46:03.803Z,99788.16
2023-04-27T02:47:06.377Z,99786.30
2023-04-27T02:48:08.566Z,99781.66
2023-04-27T02:49:12.489Z,99787.63
2023-04-27T02:50:15.568Z,99782.88
2023-04-27T02:51:18.277Z,99796.67
2023-04-27T02:52:20.683Z,99795.91
2023-04-27T02:53:22.879Z,99795.91
2023-04-27T02:54:25.131Z,99802.19
2023-04-27T02:55:27.194Z,99804.06
2023-04-27T02:56:30.341Z,99807.16
2023-04-27T02:57:32.461Z,99805.50
2023-04-27T02:58:34.819Z,99808.59
2023-04-27T02:59:36.895Z,99813.63
2023-04-27T03:00:39.561Z,99811.34
2023-04-27T03:01:43.179Z,99801.52
2023-04-27T03:02:45.639Z,99799.20
2023-04-27T03:03:48.601Z,99807.92
2023-04-27T03:04:53.963Z,99814.22
2023-04-27T03:05:56.205Z,99809.91
2023-04-27T03:06:59.290Z,99820.18
2023-04-27T03:08:01.603Z,99818.64
2023-04-27T03:11:39.144Z,99825.05
2023-04-27T03:12:42.843Z,99827.03
2023-04-27T03:13:45.236Z,99824.71
2023-04-27T03:14:47.396Z,99832.22
2023-04-27T03:15:49.572Z,99822.06
2023-04-27T03:16:52.138Z,99832.77
2023-04-27T03:17:57.232Z,99831.36
2023-04-27T03:18:59.881Z,99825.52
2023-04-27T03:20:05.916Z,99833.79
2023-04-27T03:21:12.179Z,99830.59
2023-04-27T03:22:14.877Z,99834.13
2023-04-27T03:23:18.745Z,99825.52
2023-04-27T03:24:21.008Z,99828.27
2023-04-27T03:25:24.988Z,99827.83
2023-04-27T03:26:27.706Z,99827.83
2023-04-27T03:27:30.072Z,99834.56
2023-04-27T03:28:32.924Z,99827.61
2023-04-27T03:29:35.203Z,99834.01
2023-04-27T03:30:39.629Z,99839.19
2023-04-27T03:31:42.011Z,99837.31
2023-04-27T03:32:47.153Z,99839.00
2023-04-27T03:33:49.711Z,99841.76
2023-04-27T03:34:51.998Z,99850.33
2023-04-27T03:35:56.331Z,99846.36
2023-04-27T03:36:58.640Z,99844.81
2023-04-27T03:38:00.887Z,99842.53
2023-04-27T03:39:03.596Z,99850.33
2023-04-27T03:40:11.893Z,99860.16
2023-04-27T03:41:14.248Z,99857.29
2023-04-27T03:42:17.422Z,99856.95
2023-04-27T03:43:19.994Z,99858.17
2023-04-27T03:44:23.237Z,99851.88
2023-04-27T03:45:25.740Z,99852.66
2023-04-27T03:46:28.279Z,99858.17
2023-04-27T03:47:30.990Z,99856.95
2023-04-27T03:48:33.599Z,99857.39
2023-04-27T03:49:37.287Z,99859.38
2023-04-27T03:50:41.213Z,99853.86
2023-04-27T03:51:43.250Z,99862.48
2023-04-27T03:52:45.534Z,99857.73
2023-04-27T03:53:47.843Z,99857.39
2023-04-27T03:57:25.554Z,99863.69
2023-04-27T03:58:29.701Z,99872.19
2023-04-27T03:59:45.979Z,99878.70
2023-04-27T04:00:49.348Z,99875.06
2023-04-27T04:01:51.979Z,99871.40
2023-04-27T04:02:57.578Z,99871.73
2023-04-27T04:04:00.500Z,99868.09
2023-04-27T04:05:03.621Z,99858.59
2023-04-27T04:06:08.337Z,99861.69
2023-04-27T04:07:10.774Z,99865.22
2023-04-27T04:08:13.688Z,99862.02
2023-04-27T04:09:16.084Z,99864.78
2023-04-27T04:10:21.503Z,99874.27
2023-04-27T04:11:24.837Z,99863.67
2023-04-27T04:12:29.893Z,99864.89
2023-04-27T04:13:32.125Z,99866.21
2023-04-27T04:14:36.282Z,99874.16
2023-04-27T04:15:38.374Z,99869.88
2023-04-27T04:16:42.539Z,99862.81
2023-04-27T04:17:45.846Z,99862.16
2023-04-27T04:18:48.807Z,99867.67
2023-04-27T04:19:52.877Z,99864.91
2023-04-27T04:20:55.687Z,99871.64
2023-04-27T04:21:58.745Z,99872.08
2023-04-27T04:23:00.924Z,99869.33
2023-04-27T04:24:06.787Z,99865.02
2023-04-27T04:25:10.376Z,99863.03
2023-04-27T04:26:13.334Z,99865.80
2023-04-27T04:27:16.139Z,99871.31
2023-04-27T04:28:18.540Z,99873.19
2023-04-27T04:29:22.568Z,99863.26
2023-04-27T04:30:25.173Z,99869.88
2023-04-27T04:31:27.854Z,99861.71
2023-04-27T04:32:31.843Z,99859.73
2023-04-27T04:33:34.168Z,99867.23
2023-04-27T04:34:36.448Z,99868.00
2023-04-27T04:35:39.853Z,99863.70
2023-04-27T04:36:42.150Z,99864.03
2023-04-27T04:37:45.765Z,99861.61
2023-04-27T04:38:48.507Z,99862.48
2023-04-27T04:39:51.420Z,99871.64
2023-04-27T04:40:53.995Z,99855.64
2023-04-27T04:41:55.945Z,99860.05
2023-04-27T04:43:01.523Z,99861.27
2023-04-27T04:44:05.045Z,99855.30
2023-04-27T04:45:10.381Z,99857.95
2023-04-27T04:46:13.717Z,99855.53
2023-04-27T04:47:16.115Z,99860.27
2023-04-27T04:48:18.997Z,99857.52
2023-04-27T04:49:21.891Z,99866.56
2023-04-27T04:50:25.566Z,99864.91
2023-04-27T04:51:27.985Z,99862.81
2023-04-27T04:52:30.310Z,99876.03
2023-04-27T04:53:33.346Z,99865.33
2023-04-27T04:54:35.558Z,99865.66
2023-04-27T04:55:37.702Z,99867.98
2023-04-27T04:56:40.599Z,99882.44
2023-04-27T04:57:43.379Z,99876.48
2023-04-27T04:58:46.319Z,99885.98
2023-04-27T04:59:48.667Z,99880.13
2023-04-27T05:00:51.330Z,99872.61
2023-04-27T05:01:53.667Z,99877.03
2023-04-27T05:02:56.126Z,99882.99
2023-04-27T05:04:01.435Z,99881.78
2023-04-27T05:05:07.211Z,99886.08
2023-04-27T05:06:10.035Z,99880.23
2023-04-27T05:07:14.743Z,99885.09
2023-04-27T05:08:16.385Z,99880.45
2023-04-27T05:09:21.684Z,99896.70
2023-04-27T05:10:24.011Z,99881.36
2023-04-27T05:11:26.075Z,99889.20
2023-04-27T05:12:28.365Z,99885.19
2023-04-27T05:13:30.436Z,99889.20
2023-04-27T05:14:33.348Z,99887.65
2023-04-27T05:15:37.069Z,99883.78
2023-04-27T05:16:39.913Z,99886.11
2023-04-27T05:17:42.701Z,99889.73
2023-04-27T05:18:45.113Z,99886.98
2023-04-27T05:19:48.149Z,99884.66
2023-04-27T05:20:51.502Z,99886.65
2023-04-27T05:21:54.693Z,99887.09
2023-04-27T05:22:56.956Z,99885.55
2023-04-27T05:23:59.119Z,99892.71
2023-04-27T05:25:02.853Z,99895.13
2023-04-27T05:27:21.780Z,99891.73
2023-04-27T05:28:24.157Z,99893.59
2023-04-27T05:29:26.417Z,99893.59
2023-04-27T05:30:30.969Z,99898.67
2023-04-27T05:31:33.171Z,99902.20
2023-04-27T05:32:39.062Z,99907.28
2023-04-27T05:33:41.351Z,99902.87
2023-04-27T05:34:43.724Z,99898.12
2023-04-27T05:35:47.225Z,99907.51
2023-04-27T05:36:49.899Z,99907.06
2023-04-27T05:37:52.356Z,99911.27
2023-04-27T05:38:56.423Z,99908.81
2023-04-27T05:39:58.583Z,99916.55
2023-04-27T05:41:02.881Z,99913.23
2023-04-27T05:42:06.450Z,99917.44
2023-04-27T05:43:08.753Z,99909.49
2023-04-27T05:44:10.925Z,99912.55
2023-04-27T05:45:13.314Z,99905.81
2023-04-27T05:46:17.542Z,99905.05
2023-04-27T05:47:20.008Z,99902.28
2023-04-27T05:48:22.075Z,99905.19
2023-04-27T05:49:24.299Z,99907.61
2023-04-27T05:50:27.646Z,99900.98
2023-04-27T05:51:30.542Z,99902.64
2023-04-27T05:52:33.317Z,99904.63
2023-04-27T05:53:35.492Z,99906.95
2023-04-27T05:54:37.791Z,99901.09
2023-04-27T05:55:39.950Z,99901.98
2023-04-27T05:56:43.510Z,99899.98
2023-04-27T05:57:47.669Z,99899.22
2023-04-27T05:58:49.946Z,99903.52
2023-04-27T05:59:52.052Z,99901.87
2023-04-27T06:00:54.734Z,99902.97
2023-04-27T06:01:59.347Z,99904.85
2023-04-27T06:03:01.814Z,99905.62
2023-04-27T06:04:05.787Z,99904.85
2023-04-27T06:05:09.600Z,99901.95
2023-04-27T06:06:14.280Z,99910.13
2023-04-27T06:07:17.170Z,99914.77
2023-04-27T06:08:19.375Z,99914.32
2023-04-27T06:09:21.754Z,99914.21
2023-04-27T06:10:24.711Z,99911.34
2023-04-27T06:11:27.197Z,99911.78
2023-04-27T06:12:30.182Z,99919.30
2023-04-27T06:13:32.600Z,99916.86
2023-04-27T06:14:35.561Z,99917.97
2023-04-27T06:15:37.896Z,99910.45
2023-04-27T06:16:40.554Z,99915.65
2023-04-27T06:17:44.145Z,99920.39
2023-04-27T06:18:50.074Z,99928.67
2023-04-27T06:19:52.341Z,99920.06
2023-04-27T06:21:07.715Z,99925.14
2023-04-27T06:22:22.900Z,99926.25
2023-04-27T06:29:08.360Z,99923.02
2023-04-27T06:30:33.576Z,99930.41
2023-04-27T06:31:51.291Z,99933.17
2023-04-27T06:34:21.486Z,99932.06
2023-04-27T06:35:46.517Z,99927.06
2023-04-27T06:54:28.497Z,99926.09
2023-04-27T06:55:32.244Z,99931.72
2023-04-27T06:57:15.040Z,99940.45
2023-04-27T06:58:17.371Z,99948.30
2023-04-27T06:59:20.311Z,99947.63
2023-04-27T07:00:23.190Z,99950.52
2023-04-27T07:01:25.672Z,99943.97
2023-04-27T07:02:30.782Z,99953.47
2023-04-27T07:03:35.239Z,99957.00
2023-04-27T07:04:37.962Z,99946.73
2023-04-27T07:05:41.180Z,99944.33
2023-04-27T07:06:43.749Z,99955.59
2023-04-27T07:07:45.963Z,99954.27
2023-04-27T07:08:48.096Z,99954.89
2023-04-27T07:09:50.287Z,99948.30
2023-04-27T07:10:52.810Z,99964.54
2023-04-27T07:11:56.741Z,99968.52
2023-04-27T07:12:58.832Z,99957.47
2023-04-27T07:14:01.094Z,99955.48
2023-04-27T07:15:08.236Z,99960.89
2023-04-27T07:16:12.226Z,99955.22
2023-04-27T07:17:14.476Z,99962.30
2023-04-27T07:18:16.467Z,99963.51
2023-04-27T07:19:18.509Z,99970.25
2023-04-27T07:20:21.169Z,99964.87
2023-04-27T07:21:23.170Z,99962.11
2023-04-27T07:22:25.310Z,99967.48
2023-04-27T07:23:27.551Z,99966.48
2023-04-27T07:24:29.836Z,99971.57
2023-04-27T07:25:32.305Z,99973.11
2023-04-27T07:26:34.888Z,99975.44
2023-04-27T07:27:37.473Z,99977.42
2023-04-27T07:28:40.128Z,99980.07
2023-04-27T07:29:42.040Z,99978.86
2023-04-27T07:30:44.641Z,99968.91
2023-04-27T07:31:46.859Z,99972.41
2023-04-27T07:32:49.201Z,99969.64
2023-04-27T07:33:51.338Z,99974.42
2023-04-27T07:34:58.196Z,99984.12
2023-04-27T07:36:01.311Z,99967.53
2023-04-27T07:37:03.735Z,99968.97
2023-04-27T07:38:05.911Z,99979.02
2023-04-27T07:39:08.059Z,99963.83
2023-04-27T07:40:14.175Z,99971.67
2023-04-27T07:41:16.363Z,99975.09
2023-04-27T07:42:20.362Z,99968.99
2023-04-27T07:43:22.684Z,99972.98
2023-04-27T07:44:24.816Z,99981.92
2023-04-27T07:45:27.798Z,99985.02
2023-04-27T07:46:30.462Z,99979.81
2023-04-27T07:47:32.615Z,99977.67
2023-04-27T07:48:34.554Z,99974.01
2023-04-27T07:49:37.070Z,99983.41
2023-04-27T07:50:39.529Z,99981.28
2023-04-27T07:51:41.686Z,99979.79
2023-04-27T07:52:43.786Z,99982.95
2023-04-27T07:53:47.750Z,99984.38
2023-04-27T07:54:49.877Z,99979.00
2023-04-27T07:55:53.012Z,99978.87
2023-04-27T07:56:55.683Z,99972.89
2023-04-27T07:57:57.820Z,99981.64
2023-04-27T07:59:00.089Z,99983.16
2023-04-27T08:00:05.021Z,99974.98
2023-04-27T08:01:08.956Z,99989.70
2023-04-27T08:02:18.383Z,99982.75
2023-04-27T08:03:15.394Z,99985.32
2023-04-27T08:04:18.940Z,99985.47
2023-04-27T08:05:22.068Z,99994.67
2023-04-27T08:06:25.810Z,99985.59
2023-04-27T08:07:29.248Z,99988.81
2023-04-27T08:08:31.740Z,99988.04
2023-04-27T08:09:34.207Z,99995.69
2023-04-27T08:10:36.634Z,99991.82
2023-04-27T08:11:38.734Z,99992.59
2023-04-27T08:12:40.885Z,99989.95
2023-04-27T08:13:43.059Z,99979.94
2023-04-27T08:14:46.130Z,99990.34
2023-04-27T08:18:25.163Z,99996.88
2023-04-27T08:19:27.523Z,99994.45
2023-04-27T08:20:30.825Z,99995.66
2023-04-27T08:21:32.918Z,100003.63
2023-04-27T08:22:34.900Z,99999.31
2023-04-27T08:23:37.080Z,99993.78
2023-04-27T08:24:39.242Z,100014.69
2023-04-27T08:25:41.490Z,100006.06
2023-04-27T08:26:44.899Z,100001.75
2023-04-27T08:27:47.037Z,100001.31
2023-04-27T08:28:49.587Z,100007.16
2023-04-27T08:29:51.782Z,100004.28
2023-04-27T08:30:55.302Z,100006.72
2023-04-27T08:31:59.440Z,100004.08
2023-04-27T08:33:01.914Z,100006.06
2023-04-27T08:34:04.453Z,100012.07
2023-04-27T08:35:07.768Z,100011.41
2023-04-27T08:36:10.462Z,100002.67
2023-04-27T08:37:12.637Z,100006.66
2023-04-27T08:38:14.728Z,100014.73
2023-04-27T08:39:16.912Z,100018.39
2023-04-27T08:40:20.682Z,100012.97
2023-04-27T08:41:24.850Z,100015.11
2023-04-27T08:42:27.037Z,100014.78
2023-04-27T08:43:35.846Z,100018.31
2023-04-27T08:44:41.681Z,100019.09
2023-04-27T08:45:48.363Z,100015.55
2023-04-27T08:46:51.120Z,100014.34
2023-04-27T08:47:54.349Z,100028.59
2023-04-27T08:48:56.864Z,100021.08
2023-04-27T08:49:58.958Z,100016.19
2023-04-27T08:51:01.390Z,100016.07
2023-04-27T08:52:06.574Z,100020.37
2023-04-27T08:54:27.246Z,100014.73
2023-04-27T08:55:29.382Z,100015.88
2023-04-27T08:56:32.010Z,100009.11
2023-04-27T08:57:34.245Z,100006.81
2023-04-27T08:58:37.273Z,100017.40
2023-04-27T08:59:42.801Z,100010.54
2023-04-27T09:00:45.473Z,100011.97
2023-04-27T09:01:48.662Z,100017.38
2023-04-27T09:02:51.711Z,100019.26
2023-04-27T09:04:00.741Z,100023.87
2023-04-27T09:05:07.377Z,100017.59
2023-04-27T09:06:10.497Z,100013.08
2023-04-27T09:07:17.285Z,100023.80
2023-04-27T09:08:19.621Z,100025.34
2023-04-27T09:10:43.231Z,100019.77
2023-04-27T09:11:45.334Z,100021.25
2023-04-27T09:12:55.538Z,100024.58
2023-04-27T09:13:59.015Z,100025.02
2023-04-27T09:15:02.338Z,100024.69
2023-04-27T09:16:05.072Z,100018.39
2023-04-27T09:17:07.425Z,100023.03
2023-04-27T09:19:25.748Z,100018.77
2023-04-27T09:20:28.116Z,100019.89
2023-04-27T09:21:30.369Z,100026.63
2023-04-27T09:22:36.082Z,100018.04
2023-04-27T09:23:39.660Z,100022.35
2023-04-27T09:24:52.681Z,100022.66
2023-04-27T09:25:59.213Z,100017.27
2023-04-27T09:27:01.554Z,100019.59
2023-04-27T09:28:04.927Z,100018.22
2023-04-27T09:29:07.195Z,100018.11
2023-04-27T09:30:17.905Z,100022.42
2023-04-27T09:31:20.059Z,100018.44
2023-04-27T09:32:22.228Z,100017.66
2023-04-27T09:33:25.433Z,100026.07
2023-04-27T09:34:38.766Z,100021.31
2023-04-27T09:35:41.030Z,100019.66
2023-04-27T09:36:43.861Z,100027.71
2023-04-27T09:37:46.030Z,100021.29
2023-04-27T09:38:48.974Z,100018.70
2023-04-27T09:39:51.090Z,100023.67
2023-04-27T09:40:55.417Z,100021.67
2023-04-27T09:41:57.769Z,100020.13
2023-04-27T09:43:01.026Z,100024.11
2023-04-27T09:44:03.581Z,100025.21
2023-04-27T09:45:08.508Z,100021.55
2023-04-27T09:46:13.820Z,100022.66
2023-04-27T09:47:16.525Z,100027.86
2023-04-27T09:48:18.675Z,100015.70
2023-04-27T09:49:20.838Z,100020.58
2023-04-27T09:50:23.521Z,100014.84
2023-04-27T09:51:25.818Z,100024.17
2023-04-27T09:52:28.192Z,100019.66
2023-04-27T09:53:40.016Z,100014.69
2023-04-27T09:54:42.533Z,100023.13
2023-04-27T09:55:51.686Z,100018.93
2023-04-27T09:57:06.643Z,100023.80
2023-04-27T09:58:16.064Z,100017.40
2023-04-27T09:59:38.561Z,100018.31
2023-04-27T10:00:58.581Z,100022.63
2023-04-27T10:02:07.365Z,100021.71
2023-04-27T10:03:17.711Z,100024.36
2023-04-27T10:04:50.085Z,100023.47
2023-04-27T10:06:28.311Z,100023.14
2023-04-27T10:07:31.233Z,100026.46
2023-04-27T10:08:35.078Z,100016.00
2023-04-27T10:10:52.618Z,100025.69
2023-04-27T10:11:54.914Z,100020.09
2023-04-27T10:12:59.741Z,100017.66
2023-04-27T10:14:05.618Z,100017.98
2023-04-27T10:15:16.564Z,100017.98
2023-04-27T10:16:19.004Z,100028.92
2023-04-27T10:17:35.355Z,100019.27
2023-04-27T10:18:37.821Z,100019.61
2023-04-27T10:19:40.270Z,100030.98
2023-04-27T10:20:44.333Z,100027.01
2023-04-27T10:22:00.802Z,100020.37
2023-04-27T10:23:02.994Z,100020.37
2023-04-27T10:24:10.174Z,100024.80
2023-04-27T10:26:28.408Z,100021.81
2023-04-27T10:27:34.356Z,100030.00
2023-04-27T10:28:39.534Z,100029.70
2023-04-27T10:29:44.344Z,100040.42
2023-04-27T10:30:47.078Z,100030.92
2023-04-27T10:31:49.360Z,100036.44
2023-04-27T10:32:54.932Z,100036.74
2023-04-27T10:34:08.088Z,100038.29
2023-04-27T10:35:10.370Z,100047.24
2023-04-27T10:36:15.947Z,100039.39
2023-04-27T10:37:18.307Z,100042.27
2023-04-27T10:38:21.946Z,100053.33
2023-04-27T10:39:40.055Z,100047.80
2023-04-27T10:40:33.361Z,100048.91
2023-04-27T10:41:35.695Z,100051.22
2023-04-27T10:42:37.847Z,100046.14
2023-04-27T10:43:41.356Z,100050.89
2023-04-27T10:44:47.208Z,100054.57
2023-04-27T10:45:49.374Z,100052.55
2023-04-27T10:46:59.030Z,100048.13
2023-04-27T10:48:01.272Z,100063.05
2023-04-27T10:49:04.923Z,100055.53
2023-04-27T10:50:09.942Z,100057.52
2023-04-27T10:51:16.700Z,100059.95
2023-04-27T10:52:18.993Z,100051.48
2023-04-27T10:53:21.135Z,100054.80
2023-04-27T10:54:29.527Z,100060.77
2023-04-27T10:55:32.454Z,100051.36
2023-04-27T10:56:34.628Z,100058.77
2023-04-27T10:57:45.534Z,100055.45
2023-04-27T10:58:49.535Z,100061.95
2023-04-27T10:59:53.604Z,100059.84
2023-04-27T11:00:56.584Z,100060.73
2023-04-27T11:01:58.983Z,100064.71
2023-04-27T11:03:20.972Z,100066.26
2023-04-27T11:04:23.253Z,100065.81
2023-04-27T11:05:27.086Z,100064.71
2023-04-27T11:06:30.876Z,100064.71
2023-04-27T11:07:36.069Z,100058.73
2023-04-27T11:08:43.441Z,100062.72
2023-04-27T11:09:45.675Z,100064.27
2023-04-27T11:10:49.732Z,100061.39
2023-04-27T11:11:52.207Z,100067.36
2023-04-27T11:12:54.418Z,100061.84
2023-04-27T11:13:57.914Z,100061.50
2023-04-27T11:14:59.842Z,100068.14
2023-04-27T11:16:05.419Z,100067.36
2023-04-27T11:17:07.643Z,100077.20
2023-04-27T11:18:09.897Z,100067.25
2023-04-27T11:19:12.109Z,100055.31
2023-04-27T11:20:16.562Z,100065.48
2023-04-27T11:21:18.766Z,100059.95
2023-04-27T11:22:20.869Z,100061.94
2023-04-27T11:23:28.544Z,100059.95
2023-04-27T11:24:30.797Z,100057.52
2023-04-27T11:25:32.778Z,100067.80
2023-04-27T11:26:36.259Z,100064.70
2023-04-27T11:27:40.025Z,100069.91
2023-04-27T11:28:43.205Z,100070.34
2023-04-27T11:29:45.421Z,100066.37
2023-04-27T11:30:58.371Z,100071.89
2023-04-27T11:32:01.505Z,100077.86
2023-04-27T11:33:07.513Z,100074.66
2023-04-27T11:34:14.058Z,100075.31
2023-04-27T11:35:17.124Z,100076.09
2023-04-27T11:36:22.205Z,100073.88
2023-04-27T11:37:26.743Z,100077.86
2023-04-27T11:38:35.249Z,100077.31
2023-04-27T11:39:38.582Z,100084.24
2023-04-27T11:40:41.239Z,100077.50
2023-04-27T11:41:43.493Z,100086.89
2023-04-27T11:42:45.517Z,100084.46
2023-04-27T11:43:47.779Z,100083.24
2023-04-27T11:45:02.150Z,100081.91
2023-04-27T11:46:04.642Z,100084.12
2023-04-27T11:47:07.014Z,100083.34
2023-04-27T11:48:14.443Z,100086.11
2023-04-27T11:49:16.669Z,100084.12
2023-04-27T11:50:21.886Z,100086.41
2023-04-27T11:51:24.287Z,100082.75
2023-04-27T11:52:34.798Z,100085.41
2023-04-27T11:53:39.043Z,100081.20
2023-04-27T11:54:51.189Z,100082.90
2023-04-27T12:00:08.626Z,100084.23
2023-04-27T12:01:12.665Z,100073.07
2023-04-27T12:02:15.794Z,100079.81
2023-04-27T12:03:18.105Z,100081.36
2023-04-27T12:04:21.051Z,100071.85
2023-04-27T12:05:23.900Z,100078.27
2023-04-27T12:06:32.630Z,100075.95
2023-04-27T12:07:31.552Z,100083.17
2023-04-27T12:08:33.570Z,100077.75
2023-04-27T12:09:35.530Z,100082.51
2023-04-27T12:10:38.250Z,100084.94
2023-04-27T12:11:41.105Z,100082.51
2023-04-27T12:12:43.554Z,100085.94
2023-04-27T12:13:45.695Z,100077.94
2023-04-27T12:14:49.109Z,100081.03
2023-04-27T12:15:51.329Z,100088.77
2023-04-27T12:16:54.166Z,100086.67
2023-04-27T12:17:56.898Z,100093.19
2023-04-27T12:18:59.113Z,100083.34
2023-04-27T12:20:01.260Z,100084.56
2023-04-27T12:21:03.814Z,100082.13
2023-04-27T12:22:06.666Z,100079.22
2023-04-27T12:23:08.917Z,100081.53
2023-04-27T12:24:11.102Z,100092.03
2023-04-27T12:25:13.680Z,100080.53
2023-04-27T12:26:16.163Z,100081.75
2023-04-27T12:27:18.216Z,100078.20
2023-04-27T12:28:20.161Z,100084.39
2023-04-27T12:29:22.356Z,100086.84
2023-04-27T12:30:24.954Z,100089.60
2023-04-27T12:31:27.954Z,100098.34
2023-04-27T12:32:31.075Z,100091.70
2023-04-27T12:33:33.548Z,100107.31
2023-04-27T12:34:35.788Z,100096.72
2023-04-27T12:35:38.007Z,100094.08
2023-04-27T12:36:40.512Z,100089.43
2023-04-27T12:37:43.870Z,100094.52
2023-04-27T12:38:46.046Z,100098.50
2023-04-27T12:39:48.058Z,100090.98
2023-04-27T12:40:50.775Z,100096.06
2023-04-27T12:41:53.406Z,100097.73
2023-04-27T12:42:55.571Z,100094.08
2023-04-27T12:43:57.932Z,100095.95
2023-04-27T12:45:00.044Z,100096.47
2023-04-27T12:46:03.625Z,100099.45
2023-04-27T12:47:06.145Z,100095.20
2023-04-27T12:48:08.318Z,100099.18
2023-04-27T12:49:10.645Z,100095.97
2023-04-27T12:50:13.775Z,100093.86
2023-04-27T12:51:15.866Z,100096.95
2023-04-27T12:52:17.832Z,100098.83
2023-04-27T12:53:19.914Z,100090.41
2023-04-27T12:54:22.112Z,100090.28
2023-04-27T12:55:33.040Z,100094.39
2023-04-27T12:56:28.820Z,100099.92
2023-04-27T12:57:30.882Z,100086.54
2023-04-27T12:58:32.920Z,100096.39
2023-04-27T12:59:35.675Z,100105.78
2023-04-27T13:00:38.174Z,100092.73
2023-04-27T13:01:40.514Z,100096.27
2023-04-27T13:02:43.427Z,100095.05
2023-04-27T13:03:47.330Z,100094.13
2023-04-27T13:04:49.597Z,100103.34
2023-04-27T13:05:52.191Z,100096.71
2023-04-27T13:06:56.172Z,100100.38
2023-04-27T13:07:58.515Z,100104.48
2023-04-27T13:09:03.540Z,100099.84
2023-04-27T13:10:11.290Z,100105.48
2023-04-27T13:11:13.889Z,100113.16
2023-04-27T13:12:15.888Z,100110.84